sensor_id;sensor_type;location;lat;lon;timestamp;P1;durP1;ratioP1;P2;durP2;ratioP2
20040;SDS011;10181;48.072;9.884;2024-03-22T00:01:44;13.13;;;9.60;;
20040;SDS011;10181;48.072;9.884;2024-03-22T00:04:11;13.67;;;10.23;;
20040;SDS011;10181;48.072;9.884;2024-03-22T00:06:37;12.30;;;8.50;;
20040;SDS011;10181;48.072;9.884;2024-03-22T00:09:03;11.77;;;8.83;;
20040;SDS011;10181;48.072;9.884;2024-03-22T00:11:29;16.33;;;10.40;;
20040;SDS011;10181;48.072;9.884;2024-03-22T00:13:55;12.00;;;9.07;;
20040;SDS011;10181;48.072;9.884;2024-03-22T00:16:20;12.90;;;9.20;;
20040;SDS011;10181;48.072;9.884;2024-03-22T00:18:46;16.50;;;9.57;;
20040;SDS011;10181;48.072;9.884;2024-03-22T00:21:11;10.20;;;8.30;;
20040;SDS011;10181;48.072;9.884;2024-03-22T00:23:37;12.97;;;8.33;;
20040;SDS011;10181;48.072;9.884;2024-03-22T00:26:03;13.23;;;8.70;;
20040;SDS011;10181;48.072;9.884;2024-03-22T00:28:28;16.77;;;10.43;;
20040;SDS011;10181;48.072;9.884;2024-03-22T00:30:54;11.03;;;7.97;;
20040;SDS011;10181;48.072;9.884;2024-03-22T00:33:19;10.20;;;7.57;;
20040;SDS011;10181;48.072;9.884;2024-03-22T00:35:45;10.47;;;7.97;;
20040;SDS011;10181;48.072;9.884;2024-03-22T00:38:10;12.70;;;8.10;;
20040;SDS011;10181;48.072;9.884;2024-03-22T00:40:36;13.73;;;8.97;;
20040;SDS011;10181;48.072;9.884;2024-03-22T00:43:02;13.07;;;9.40;;
20040;SDS011;10181;48.072;9.884;2024-03-22T00:45:27;12.57;;;8.43;;
20040;SDS011;10181;48.072;9.884;2024-03-22T00:47:53;11.03;;;8.30;;
20040;SDS011;10181;48.072;9.884;2024-03-22T00:50:19;13.37;;;9.87;;
20040;SDS011;10181;48.072;9.884;2024-03-22T00:52:44;15.87;;;9.73;;
20040;SDS011;10181;48.072;9.884;2024-03-22T00:55:10;15.57;;;11.00;;
20040;SDS011;10181;48.072;9.884;2024-03-22T00:57:35;13.63;;;8.87;;
20040;SDS011;10181;48.072;9.884;2024-03-22T01:00:01;12.30;;;8.30;;
20040;SDS011;10181;48.072;9.884;2024-03-22T01:02:26;17.70;;;10.67;;
20040;SDS011;10181;48.072;9.884;2024-03-22T01:04:52;10.00;;;8.00;;
20040;SDS011;10181;48.072;9.884;2024-03-22T01:07:18;11.93;;;7.63;;
20040;SDS011;10181;48.072;9.884;2024-03-22T01:09:43;13.87;;;10.13;;
20040;SDS011;10181;48.072;9.884;2024-03-22T01:12:09;11.93;;;8.77;;
20040;SDS011;10181;48.072;9.884;2024-03-22T01:14:35;12.40;;;8.57;;
20040;SDS011;10181;48.072;9.884;2024-03-22T01:17:01;11.63;;;7.80;;
20040;SDS011;10181;48.072;9.884;2024-03-22T01:19:27;11.97;;;8.13;;
20040;SDS011;10181;48.072;9.884;2024-03-22T01:21:53;11.00;;;8.50;;
20040;SDS011;10181;48.072;9.884;2024-03-22T01:24:18;11.03;;;7.87;;
20040;SDS011;10181;48.072;9.884;2024-03-22T01:26:44;13.23;;;8.30;;
20040;SDS011;10181;48.072;9.884;2024-03-22T01:29:09;10.80;;;8.07;;
20040;SDS011;10181;48.072;9.884;2024-03-22T01:31:35;12.20;;;8.17;;
20040;SDS011;10181;48.072;9.884;2024-03-22T01:34:00;13.50;;;8.73;;
20040;SDS011;10181;48.072;9.884;2024-03-22T01:36:26;10.70;;;7.40;;
20040;SDS011;10181;48.072;9.884;2024-03-22T01:38:52;20.73;;;9.33;;
20040;SDS011;10181;48.072;9.884;2024-03-22T01:41:17;15.33;;;9.83;;
20040;SDS011;10181;48.072;9.884;2024-03-22T01:43:43;12.63;;;8.23;;
20040;SDS011;10181;48.072;9.884;2024-03-22T01:46:08;12.17;;;8.37;;
20040;SDS011;10181;48.072;9.884;2024-03-22T01:48:35;9.57;;;7.07;;
20040;SDS011;10181;48.072;9.884;2024-03-22T01:51:01;10.50;;;7.30;;
20040;SDS011;10181;48.072;9.884;2024-03-22T01:53:27;10.97;;;7.93;;
20040;SDS011;10181;48.072;9.884;2024-03-22T01:55:53;10.33;;;7.27;;
20040;SDS011;10181;48.072;9.884;2024-03-22T01:58:19;9.80;;;7.50;;
20040;SDS011;10181;48.072;9.884;2024-03-22T02:00:46;13.57;;;9.30;;
20040;SDS011;10181;48.072;9.884;2024-03-22T02:03:12;13.03;;;8.33;;
20040;SDS011;10181;48.072;9.884;2024-03-22T02:05:38;12.97;;;8.10;;
20040;SDS011;10181;48.072;9.884;2024-03-22T02:08:03;8.40;;;6.93;;
20040;SDS011;10181;48.072;9.884;2024-03-22T02:10:29;12.37;;;8.77;;
20040;SDS011;10181;48.072;9.884;2024-03-22T02:12:55;10.27;;;7.63;;
20040;SDS011;10181;48.072;9.884;2024-03-22T02:15:21;10.57;;;7.23;;
20040;SDS011;10181;48.072;9.884;2024-03-22T02:17:47;9.40;;;7.17;;
20040;SDS011;10181;48.072;9.884;2024-03-22T02:20:12;12.97;;;8.20;;
20040;SDS011;10181;48.072;9.884;2024-03-22T02:22:38;9.27;;;7.37;;
20040;SDS011;10181;48.072;9.884;2024-03-22T02:25:04;11.20;;;6.93;;
20040;SDS011;10181;48.072;9.884;2024-03-22T02:27:29;8.50;;;6.90;;
20040;SDS011;10181;48.072;9.884;2024-03-22T02:29:55;9.83;;;7.37;;
20040;SDS011;10181;48.072;9.884;2024-03-22T02:32:21;8.83;;;7.40;;
20040;SDS011;10181;48.072;9.884;2024-03-22T02:34:46;9.37;;;7.27;;
20040;SDS011;10181;48.072;9.884;2024-03-22T02:37:12;9.00;;;6.47;;
20040;SDS011;10181;48.072;9.884;2024-03-22T02:39:38;10.83;;;7.30;;
20040;SDS011;10181;48.072;9.884;2024-03-22T02:42:03;12.27;;;7.43;;
20040;SDS011;10181;48.072;9.884;2024-03-22T02:44:29;11.50;;;7.23;;
20040;SDS011;10181;48.072;9.884;2024-03-22T02:46:55;9.03;;;7.27;;
20040;SDS011;10181;48.072;9.884;2024-03-22T02:49:20;10.97;;;7.57;;
20040;SDS011;10181;48.072;9.884;2024-03-22T02:51:46;9.97;;;6.63;;
20040;SDS011;10181;48.072;9.884;2024-03-22T02:54:11;9.37;;;7.53;;
20040;SDS011;10181;48.072;9.884;2024-03-22T02:56:37;9.63;;;7.10;;
20040;SDS011;10181;48.072;9.884;2024-03-22T02:59:03;9.97;;;7.17;;
20040;SDS011;10181;48.072;9.884;2024-03-22T03:01:28;9.67;;;7.10;;
20040;SDS011;10181;48.072;9.884;2024-03-22T03:03:54;8.10;;;6.57;;
20040;SDS011;10181;48.072;9.884;2024-03-22T03:06:19;10.33;;;6.80;;
20040;SDS011;10181;48.072;9.884;2024-03-22T03:08:45;9.20;;;6.57;;
20040;SDS011;10181;48.072;9.884;2024-03-22T03:11:11;10.80;;;6.60;;
20040;SDS011;10181;48.072;9.884;2024-03-22T03:13:38;6.63;;;5.67;;
20040;SDS011;10181;48.072;9.884;2024-03-22T03:16:04;8.27;;;6.37;;
20040;SDS011;10181;48.072;9.884;2024-03-22T03:18:30;7.33;;;6.27;;
20040;SDS011;10181;48.072;9.884;2024-03-22T03:20:55;8.87;;;6.40;;
20040;SDS011;10181;48.072;9.884;2024-03-22T03:23:21;7.60;;;6.70;;
20040;SDS011;10181;48.072;9.884;2024-03-22T03:25:46;9.20;;;6.40;;
20040;SDS011;10181;48.072;9.884;2024-03-22T03:28:12;9.53;;;6.47;;
20040;SDS011;10181;48.072;9.884;2024-03-22T03:30:38;7.03;;;6.20;;
20040;SDS011;10181;48.072;9.884;2024-03-22T03:33:04;8.73;;;6.47;;
20040;SDS011;10181;48.072;9.884;2024-03-22T03:35:30;8.20;;;5.70;;
20040;SDS011;10181;48.072;9.884;2024-03-22T03:37:56;6.80;;;6.10;;
20040;SDS011;10181;48.072;9.884;2024-03-22T03:40:21;8.17;;;6.37;;
20040;SDS011;10181;48.072;9.884;2024-03-22T03:42:49;7.47;;;5.30;;
20040;SDS011;10181;48.072;9.884;2024-03-22T03:45:15;8.13;;;5.47;;
20040;SDS011;10181;48.072;9.884;2024-03-22T03:47:41;8.17;;;6.00;;
20040;SDS011;10181;48.072;9.884;2024-03-22T03:50:06;6.47;;;5.87;;
20040;SDS011;10181;48.072;9.884;2024-03-22T03:52:32;7.07;;;5.43;;
20040;SDS011;10181;48.072;9.884;2024-03-22T03:54:58;6.73;;;5.30;;
20040;SDS011;10181;48.072;9.884;2024-03-22T03:57:23;7.07;;;6.13;;
20040;SDS011;10181;48.072;9.884;2024-03-22T03:59:49;8.03;;;6.60;;
20040;SDS011;10181;48.072;9.884;2024-03-22T04:02:15;7.77;;;5.83;;
20040;SDS011;10181;48.072;9.884;2024-03-22T04:04:40;7.67;;;5.47;;
20040;SDS011;10181;48.072;9.884;2024-03-22T04:07:06;6.03;;;5.13;;
20040;SDS011;10181;48.072;9.884;2024-03-22T04:09:31;5.73;;;4.97;;
20040;SDS011;10181;48.072;9.884;2024-03-22T04:11:58;7.17;;;5.77;;
20040;SDS011;10181;48.072;9.884;2024-03-22T04:14:24;6.13;;;5.37;;
20040;SDS011;10181;48.072;9.884;2024-03-22T04:16:50;7.90;;;5.80;;
20040;SDS011;10181;48.072;9.884;2024-03-22T04:19:16;5.73;;;4.97;;
20040;SDS011;10181;48.072;9.884;2024-03-22T04:21:42;6.43;;;5.57;;
20040;SDS011;10181;48.072;9.884;2024-03-22T04:24:07;6.00;;;5.37;;
20040;SDS011;10181;48.072;9.884;2024-03-22T04:26:33;7.17;;;6.43;;
20040;SDS011;10181;48.072;9.884;2024-03-22T04:28:58;7.10;;;5.70;;
20040;SDS011;10181;48.072;9.884;2024-03-22T04:31:24;6.13;;;5.60;;
20040;SDS011;10181;48.072;9.884;2024-03-22T04:33:50;5.23;;;4.70;;
20040;SDS011;10181;48.072;9.884;2024-03-22T04:36:15;6.70;;;6.00;;
20040;SDS011;10181;48.072;9.884;2024-03-22T04:38:41;6.23;;;5.60;;
20040;SDS011;10181;48.072;9.884;2024-03-22T04:41:06;7.50;;;5.53;;
20040;SDS011;10181;48.072;9.884;2024-03-22T04:43:32;5.93;;;5.03;;
20040;SDS011;10181;48.072;9.884;2024-03-22T04:45:58;6.40;;;5.33;;
20040;SDS011;10181;48.072;9.884;2024-03-22T04:48:23;5.33;;;4.67;;
20040;SDS011;10181;48.072;9.884;2024-03-22T04:50:50;5.90;;;5.20;;
20040;SDS011;10181;48.072;9.884;2024-03-22T04:53:16;7.37;;;4.73;;
20040;SDS011;10181;48.072;9.884;2024-03-22T04:55:43;6.37;;;5.77;;
20040;SDS011;10181;48.072;9.884;2024-03-22T04:58:19;4.90;;;4.40;;
20040;SDS011;10181;48.072;9.884;2024-03-22T05:00:46;6.77;;;4.83;;
20040;SDS011;10181;48.072;9.884;2024-03-22T05:03:13;6.93;;;6.03;;
20040;SDS011;10181;48.072;9.884;2024-03-22T05:05:39;5.90;;;5.33;;
20040;SDS011;10181;48.072;9.884;2024-03-22T05:08:06;6.73;;;5.67;;
20040;SDS011;10181;48.072;9.884;2024-03-22T05:10:32;6.43;;;5.43;;
20040;SDS011;10181;48.072;9.884;2024-03-22T05:12:58;6.70;;;5.80;;
20040;SDS011;10181;48.072;9.884;2024-03-22T05:15:25;5.47;;;4.97;;
20040;SDS011;10181;48.072;9.884;2024-03-22T05:17:50;6.70;;;5.13;;
20040;SDS011;10181;48.072;9.884;2024-03-22T05:20:16;6.43;;;5.27;;
20040;SDS011;10181;48.072;9.884;2024-03-22T05:22:42;7.33;;;6.03;;
20040;SDS011;10181;48.072;9.884;2024-03-22T05:25:08;7.97;;;5.83;;
20040;SDS011;10181;48.072;9.884;2024-03-22T05:27:35;6.00;;;5.40;;
20040;SDS011;10181;48.072;9.884;2024-03-22T05:30:01;5.93;;;5.43;;
20040;SDS011;10181;48.072;9.884;2024-03-22T05:32:29;5.47;;;4.93;;
20040;SDS011;10181;48.072;9.884;2024-03-22T05:34:54;8.53;;;5.53;;
20040;SDS011;10181;48.072;9.884;2024-03-22T05:37:20;6.10;;;5.60;;
20040;SDS011;10181;48.072;9.884;2024-03-22T05:39:46;5.03;;;4.53;;
20040;SDS011;10181;48.072;9.884;2024-03-22T05:42:12;5.57;;;4.60;;
20040;SDS011;10181;48.072;9.884;2024-03-22T05:44:37;6.33;;;5.73;;
20040;SDS011;10181;48.072;9.884;2024-03-22T05:47:03;7.17;;;4.80;;
20040;SDS011;10181;48.072;9.884;2024-03-22T05:49:28;5.40;;;4.90;;
20040;SDS011;10181;48.072;9.884;2024-03-22T05:51:54;5.47;;;4.97;;
20040;SDS011;10181;48.072;9.884;2024-03-22T05:54:20;8.57;;;6.13;;
20040;SDS011;10181;48.072;9.884;2024-03-22T05:56:46;6.30;;;5.70;;
20040;SDS011;10181;48.072;9.884;2024-03-22T05:59:11;6.17;;;5.27;;
20040;SDS011;10181;48.072;9.884;2024-03-22T06:01:37;5.23;;;4.67;;
20040;SDS011;10181;48.072;9.884;2024-03-22T06:04:04;6.27;;;4.90;;
20040;SDS011;10181;48.072;9.884;2024-03-22T06:06:30;5.03;;;4.53;;
20040;SDS011;10181;48.072;9.884;2024-03-22T06:08:59;6.47;;;5.90;;
20040;SDS011;10181;48.072;9.884;2024-03-22T06:11:28;6.23;;;5.73;;
20040;SDS011;10181;48.072;9.884;2024-03-22T06:13:53;7.43;;;6.43;;
20040;SDS011;10181;48.072;9.884;2024-03-22T06:16:19;6.40;;;5.77;;
20040;SDS011;10181;48.072;9.884;2024-03-22T06:18:45;7.83;;;5.53;;
20040;SDS011;10181;48.072;9.884;2024-03-22T06:21:10;7.53;;;6.40;;
20040;SDS011;10181;48.072;9.884;2024-03-22T06:23:36;8.90;;;6.73;;
20040;SDS011;10181;48.072;9.884;2024-03-22T06:26:01;6.87;;;5.80;;
20040;SDS011;10181;48.072;9.884;2024-03-22T06:28:28;6.77;;;6.17;;
20040;SDS011;10181;48.072;9.884;2024-03-22T06:30:54;7.17;;;5.90;;
20040;SDS011;10181;48.072;9.884;2024-03-22T06:33:20;5.77;;;5.23;;
20040;SDS011;10181;48.072;9.884;2024-03-22T06:35:46;6.67;;;6.00;;
20040;SDS011;10181;48.072;9.884;2024-03-22T06:38:12;7.07;;;6.00;;
20040;SDS011;10181;48.072;9.884;2024-03-22T06:40:38;7.77;;;6.17;;
20040;SDS011;10181;48.072;9.884;2024-03-22T06:43:03;7.40;;;6.67;;
20040;SDS011;10181;48.072;9.884;2024-03-22T06:45:29;6.47;;;5.83;;
20040;SDS011;10181;48.072;9.884;2024-03-22T06:47:55;7.43;;;6.67;;
20040;SDS011;10181;48.072;9.884;2024-03-22T06:50:20;7.37;;;6.43;;
20040;SDS011;10181;48.072;9.884;2024-03-22T06:52:52;8.13;;;6.73;;
20040;SDS011;10181;48.072;9.884;2024-03-22T06:55:19;6.53;;;5.43;;
20040;SDS011;10181;48.072;9.884;2024-03-22T06:57:45;6.30;;;5.20;;
20040;SDS011;10181;48.072;9.884;2024-03-22T07:00:12;8.93;;;5.93;;
20040;SDS011;10181;48.072;9.884;2024-03-22T07:02:38;6.93;;;6.33;;
20040;SDS011;10181;48.072;9.884;2024-03-22T07:05:04;6.63;;;6.10;;
20040;SDS011;10181;48.072;9.884;2024-03-22T07:07:31;5.33;;;4.93;;
20040;SDS011;10181;48.072;9.884;2024-03-22T07:09:56;5.80;;;5.10;;
20040;SDS011;10181;48.072;9.884;2024-03-22T07:12:22;5.30;;;4.90;;
20040;SDS011;10181;48.072;9.884;2024-03-22T07:14:48;7.10;;;5.77;;
20040;SDS011;10181;48.072;9.884;2024-03-22T07:17:13;5.53;;;5.03;;
20040;SDS011;10181;48.072;9.884;2024-03-22T07:19:40;5.23;;;4.80;;
20040;SDS011;10181;48.072;9.884;2024-03-22T07:22:05;6.40;;;5.60;;
20040;SDS011;10181;48.072;9.884;2024-03-22T07:24:32;5.30;;;4.83;;
20040;SDS011;10181;48.072;9.884;2024-03-22T07:26:57;5.20;;;4.80;;
20040;SDS011;10181;48.072;9.884;2024-03-22T07:29:23;4.97;;;4.57;;
20040;SDS011;10181;48.072;9.884;2024-03-22T07:31:48;5.10;;;4.70;;
20040;SDS011;10181;48.072;9.884;2024-03-22T07:34:14;4.53;;;4.13;;
20040;SDS011;10181;48.072;9.884;2024-03-22T07:36:40;5.67;;;4.47;;
20040;SDS011;10181;48.072;9.884;2024-03-22T07:39:06;4.20;;;3.80;;
20040;SDS011;10181;48.072;9.884;2024-03-22T07:41:32;4.27;;;3.97;;
20040;SDS011;10181;48.072;9.884;2024-03-22T07:44:01;4.20;;;3.90;;
20040;SDS011;10181;48.072;9.884;2024-03-22T07:46:27;4.00;;;3.70;;
20040;SDS011;10181;48.072;9.884;2024-03-22T07:48:53;3.83;;;3.30;;
20040;SDS011;10181;48.072;9.884;2024-03-22T07:51:22;4.90;;;3.83;;
20040;SDS011;10181;48.072;9.884;2024-03-22T07:53:48;3.83;;;3.53;;
20040;SDS011;10181;48.072;9.884;2024-03-22T07:56:13;3.50;;;3.20;;
20040;SDS011;10181;48.072;9.884;2024-03-22T07:58:40;4.37;;;3.97;;
20040;SDS011;10181;48.072;9.884;2024-03-22T08:01:07;4.07;;;3.77;;
20040;SDS011;10181;48.072;9.884;2024-03-22T08:03:33;4.33;;;3.93;;
20040;SDS011;10181;48.072;9.884;2024-03-22T08:05:58;4.50;;;4.20;;
20040;SDS011;10181;48.072;9.884;2024-03-22T08:08:24;4.20;;;3.90;;
20040;SDS011;10181;48.072;9.884;2024-03-22T08:10:50;5.33;;;4.40;;
20040;SDS011;10181;48.072;9.884;2024-03-22T08:13:16;4.73;;;4.20;;
20040;SDS011;10181;48.072;9.884;2024-03-22T08:15:41;4.80;;;3.80;;
20040;SDS011;10181;48.072;9.884;2024-03-22T08:18:08;4.03;;;3.73;;
20040;SDS011;10181;48.072;9.884;2024-03-22T08:20:34;4.07;;;3.77;;
20040;SDS011;10181;48.072;9.884;2024-03-22T08:23:00;4.37;;;4.07;;
20040;SDS011;10181;48.072;9.884;2024-03-22T08:25:25;4.07;;;3.73;;
20040;SDS011;10181;48.072;9.884;2024-03-22T08:27:51;5.30;;;4.80;;
20040;SDS011;10181;48.072;9.884;2024-03-22T08:30:20;5.07;;;4.67;;
20040;SDS011;10181;48.072;9.884;2024-03-22T08:32:46;4.20;;;3.80;;
20040;SDS011;10181;48.072;9.884;2024-03-22T08:35:12;5.03;;;4.57;;
20040;SDS011;10181;48.072;9.884;2024-03-22T08:37:37;4.40;;;4.00;;
20040;SDS011;10181;48.072;9.884;2024-03-22T08:40:03;4.47;;;4.17;;
20040;SDS011;10181;48.072;9.884;2024-03-22T08:42:32;6.00;;;3.77;;
20040;SDS011;10181;48.072;9.884;2024-03-22T08:44:58;4.60;;;4.27;;
20040;SDS011;10181;48.072;9.884;2024-03-22T08:47:24;4.47;;;3.90;;
20040;SDS011;10181;48.072;9.884;2024-03-22T08:49:50;3.47;;;3.27;;
20040;SDS011;10181;48.072;9.884;2024-03-22T08:52:15;4.37;;;4.00;;
20040;SDS011;10181;48.072;9.884;2024-03-22T08:54:41;4.03;;;3.67;;
20040;SDS011;10181;48.072;9.884;2024-03-22T08:57:06;5.53;;;3.53;;
20040;SDS011;10181;48.072;9.884;2024-03-22T08:59:32;4.03;;;3.53;;
20040;SDS011;10181;48.072;9.884;2024-03-22T09:01:57;4.20;;;3.90;;
20040;SDS011;10181;48.072;9.884;2024-03-22T09:04:24;3.60;;;3.40;;
20040;SDS011;10181;48.072;9.884;2024-03-22T09:06:50;3.97;;;3.73;;
20040;SDS011;10181;48.072;9.884;2024-03-22T09:09:16;3.40;;;3.20;;
20040;SDS011;10181;48.072;9.884;2024-03-22T09:11:42;3.57;;;3.37;;
20040;SDS011;10181;48.072;9.884;2024-03-22T09:14:08;4.13;;;3.83;;
20040;SDS011;10181;48.072;9.884;2024-03-22T09:16:34;3.97;;;3.20;;
20040;SDS011;10181;48.072;9.884;2024-03-22T09:18:59;3.47;;;3.27;;
20040;SDS011;10181;48.072;9.884;2024-03-22T09:21:25;3.47;;;3.27;;
20040;SDS011;10181;48.072;9.884;2024-03-22T09:23:51;3.60;;;3.30;;
20040;SDS011;10181;48.072;9.884;2024-03-22T09:26:16;3.63;;;3.03;;
20040;SDS011;10181;48.072;9.884;2024-03-22T09:28:42;3.70;;;3.40;;
20040;SDS011;10181;48.072;9.884;2024-03-22T09:31:10;3.10;;;2.80;;
20040;SDS011;10181;48.072;9.884;2024-03-22T09:33:36;3.20;;;3.00;;
20040;SDS011;10181;48.072;9.884;2024-03-22T09:36:02;3.60;;;3.30;;
20040;SDS011;10181;48.072;9.884;2024-03-22T09:38:28;3.47;;;3.13;;
20040;SDS011;10181;48.072;9.884;2024-03-22T09:40:53;3.43;;;3.23;;
20040;SDS011;10181;48.072;9.884;2024-03-22T09:43:22;3.13;;;2.83;;
20040;SDS011;10181;48.072;9.884;2024-03-22T09:45:48;3.50;;;3.30;;
20040;SDS011;10181;48.072;9.884;2024-03-22T09:48:15;3.57;;;3.37;;
20040;SDS011;10181;48.072;9.884;2024-03-22T09:50:47;3.67;;;3.37;;
20040;SDS011;10181;48.072;9.884;2024-03-22T09:53:17;3.97;;;3.20;;
20040;SDS011;10181;48.072;9.884;2024-03-22T09:55:44;3.30;;;3.10;;
20040;SDS011;10181;48.072;9.884;2024-03-22T09:58:12;5.10;;;3.33;;
20040;SDS011;10181;48.072;9.884;2024-03-22T10:00:37;3.70;;;3.40;;
20040;SDS011;10181;48.072;9.884;2024-03-22T10:03:03;3.53;;;3.33;;
20040;SDS011;10181;48.072;9.884;2024-03-22T10:05:30;4.00;;;3.43;;
20040;SDS011;10181;48.072;9.884;2024-03-22T10:07:56;3.80;;;3.50;;
20040;SDS011;10181;48.072;9.884;2024-03-22T10:10:22;3.37;;;3.17;;
20040;SDS011;10181;48.072;9.884;2024-03-22T10:12:48;3.10;;;2.90;;
20040;SDS011;10181;48.072;9.884;2024-03-22T10:15:13;3.47;;;3.17;;
20040;SDS011;10181;48.072;9.884;2024-03-22T10:17:39;4.27;;;3.40;;
20040;SDS011;10181;48.072;9.884;2024-03-22T10:20:06;3.90;;;3.63;;
20040;SDS011;10181;48.072;9.884;2024-03-22T10:22:37;3.13;;;2.83;;
20040;SDS011;10181;48.072;9.884;2024-03-22T10:25:06;3.60;;;3.30;;
20040;SDS011;10181;48.072;9.884;2024-03-22T10:27:32;3.60;;;3.30;;
20040;SDS011;10181;48.072;9.884;2024-03-22T10:29:57;3.20;;;3.00;;
20040;SDS011;10181;48.072;9.884;2024-03-22T10:32:24;3.40;;;3.20;;
20040;SDS011;10181;48.072;9.884;2024-03-22T10:34:50;3.77;;;3.47;;
20040;SDS011;10181;48.072;9.884;2024-03-22T10:37:16;3.33;;;3.03;;
20040;SDS011;10181;48.072;9.884;2024-03-22T10:39:42;3.20;;;3.00;;
20040;SDS011;10181;48.072;9.884;2024-03-22T10:42:09;4.03;;;3.73;;
20040;SDS011;10181;48.072;9.884;2024-03-22T10:44:37;3.63;;;3.33;;
20040;SDS011;10181;48.072;9.884;2024-03-22T10:47:03;3.77;;;3.57;;
20040;SDS011;10181;48.072;9.884;2024-03-22T10:49:30;4.23;;;3.00;;
20040;SDS011;10181;48.072;9.884;2024-03-22T10:52:02;3.40;;;3.13;;
20040;SDS011;10181;48.072;9.884;2024-03-22T10:54:32;3.73;;;3.10;;
20040;SDS011;10181;48.072;9.884;2024-03-22T10:57:01;3.60;;;3.30;;
20040;SDS011;10181;48.072;9.884;2024-03-22T10:59:27;3.33;;;3.13;;
20040;SDS011;10181;48.072;9.884;2024-03-22T11:02:02;3.10;;;2.90;;
20040;SDS011;10181;48.072;9.884;2024-03-22T11:04:29;2.80;;;2.70;;
20040;SDS011;10181;48.072;9.884;2024-03-22T11:06:56;2.90;;;2.70;;
20040;SDS011;10181;48.072;9.884;2024-03-22T11:09:25;3.07;;;2.87;;
20040;SDS011;10181;48.072;9.884;2024-03-22T11:11:52;2.93;;;2.70;;
20040;SDS011;10181;48.072;9.884;2024-03-22T11:14:18;2.27;;;2.07;;
20040;SDS011;10181;48.072;9.884;2024-03-22T11:16:45;2.70;;;2.50;;
20040;SDS011;10181;48.072;9.884;2024-03-22T11:19:11;2.63;;;2.53;;
20040;SDS011;10181;48.072;9.884;2024-03-22T11:21:37;2.40;;;2.13;;
20040;SDS011;10181;48.072;9.884;2024-03-22T11:24:04;2.70;;;2.50;;
20040;SDS011;10181;48.072;9.884;2024-03-22T11:26:30;2.30;;;2.03;;
20040;SDS011;10181;48.072;9.884;2024-03-22T11:28:57;2.40;;;2.30;;
20040;SDS011;10181;48.072;9.884;2024-03-22T11:31:23;2.23;;;2.13;;
20040;SDS011;10181;48.072;9.884;2024-03-22T11:33:52;2.10;;;1.83;;
20040;SDS011;10181;48.072;9.884;2024-03-22T11:36:24;1.70;;;1.60;;
20040;SDS011;10181;48.072;9.884;2024-03-22T11:38:50;1.50;;;1.40;;
20040;SDS011;10181;48.072;9.884;2024-03-22T11:41:18;1.67;;;1.67;;
20040;SDS011;10181;48.072;9.884;2024-03-22T11:43:47;1.73;;;1.63;;
20040;SDS011;10181;48.072;9.884;2024-03-22T11:46:14;1.67;;;1.50;;
20040;SDS011;10181;48.072;9.884;2024-03-22T11:48:41;1.60;;;1.50;;
20040;SDS011;10181;48.072;9.884;2024-03-22T11:51:07;1.77;;;1.40;;
20040;SDS011;10181;48.072;9.884;2024-03-22T11:53:34;2.00;;;1.40;;
20040;SDS011;10181;48.072;9.884;2024-03-22T11:56:00;1.63;;;1.53;;
20040;SDS011;10181;48.072;9.884;2024-03-22T11:58:28;1.40;;;1.30;;
20040;SDS011;10181;48.072;9.884;2024-03-22T12:00:54;1.30;;;1.30;;
20040;SDS011;10181;48.072;9.884;2024-03-22T12:03:23;2.00;;;1.90;;
20040;SDS011;10181;48.072;9.884;2024-03-22T12:05:49;1.53;;;1.53;;
20040;SDS011;10181;48.072;9.884;2024-03-22T12:08:16;1.80;;;1.70;;
20040;SDS011;10181;48.072;9.884;2024-03-22T12:10:45;2.10;;;2.00;;
20040;SDS011;10181;48.072;9.884;2024-03-22T12:13:10;2.00;;;1.77;;
20040;SDS011;10181;48.072;9.884;2024-03-22T12:15:36;2.63;;;1.70;;
20040;SDS011;10181;48.072;9.884;2024-03-22T12:18:02;1.70;;;1.60;;
20040;SDS011;10181;48.072;9.884;2024-03-22T12:20:28;2.17;;;2.08;;
20040;SDS011;10181;48.072;9.884;2024-03-22T12:22:54;2.45;;;1.70;;
20040;SDS011;10181;48.072;9.884;2024-03-22T12:25:20;1.65;;;1.45;;
20040;SDS011;10181;48.072;9.884;2024-03-22T12:27:46;1.60;;;1.55;;
20040;SDS011;10181;48.072;9.884;2024-03-22T12:30:12;1.38;;;1.30;;
20040;SDS011;10181;48.072;9.884;2024-03-22T12:32:38;1.33;;;1.33;;
20040;SDS011;10181;48.072;9.884;2024-03-22T12:35:03;1.48;;;1.48;;
20040;SDS011;10181;48.072;9.884;2024-03-22T12:37:30;1.60;;;1.50;;
20040;SDS011;10181;48.072;9.884;2024-03-22T12:39:55;1.17;;;1.08;;
20040;SDS011;10181;48.072;9.884;2024-03-22T12:42:21;1.63;;;1.52;;
20040;SDS011;10181;48.072;9.884;2024-03-22T12:44:46;2.00;;;1.40;;
20040;SDS011;10181;48.072;9.884;2024-03-22T12:47:13;1.20;;;1.20;;
20040;SDS011;10181;48.072;9.884;2024-03-22T12:49:38;2.38;;;1.05;;
20040;SDS011;10181;48.072;9.884;2024-03-22T12:52:04;1.10;;;1.10;;
20040;SDS011;10181;48.072;9.884;2024-03-22T12:54:30;1.50;;;1.40;;
20040;SDS011;10181;48.072;9.884;2024-03-22T12:56:56;2.15;;;1.45;;
20040;SDS011;10181;48.072;9.884;2024-03-22T12:59:21;1.60;;;1.50;;
20040;SDS011;10181;48.072;9.884;2024-03-22T13:01:47;1.50;;;1.40;;
20040;SDS011;10181;48.072;9.884;2024-03-22T13:04:12;1.67;;;1.20;;
20040;SDS011;10181;48.072;9.884;2024-03-22T13:06:38;1.25;;;1.25;;
20040;SDS011;10181;48.072;9.884;2024-03-22T13:09:04;1.67;;;1.58;;
20040;SDS011;10181;48.072;9.884;2024-03-22T13:11:30;2.28;;;1.75;;
20040;SDS011;10181;48.072;9.884;2024-03-22T13:13:57;1.13;;;1.13;;
20040;SDS011;10181;48.072;9.884;2024-03-22T13:16:22;1.75;;;1.15;;
20040;SDS011;10181;48.072;9.884;2024-03-22T13:18:48;0.93;;;0.93;;
20040;SDS011;10181;48.072;9.884;2024-03-22T13:21:14;1.25;;;1.20;;
20040;SDS011;10181;48.072;9.884;2024-03-22T13:23:40;1.20;;;1.20;;
20040;SDS011;10181;48.072;9.884;2024-03-22T13:26:05;1.50;;;1.40;;
20040;SDS011;10181;48.072;9.884;2024-03-22T13:28:31;1.42;;;1.42;;
20040;SDS011;10181;48.072;9.884;2024-03-22T13:31:01;1.20;;;1.20;;
20040;SDS011;10181;48.072;9.884;2024-03-22T13:33:28;2.08;;;1.15;;
20040;SDS011;10181;48.072;9.884;2024-03-22T13:35:54;1.30;;;1.20;;
20040;SDS011;10181;48.072;9.884;2024-03-22T13:38:19;1.15;;;1.15;;
20040;SDS011;10181;48.072;9.884;2024-03-22T13:40:52;1.20;;;1.02;;
20040;SDS011;10181;48.072;9.884;2024-03-22T13:43:18;1.45;;;1.35;;
20040;SDS011;10181;48.072;9.884;2024-03-22T13:45:44;1.38;;;1.38;;
20040;SDS011;10181;48.072;9.884;2024-03-22T13:48:11;1.45;;;1.25;;
20040;SDS011;10181;48.072;9.884;2024-03-22T13:50:37;1.35;;;1.25;;
20040;SDS011;10181;48.072;9.884;2024-03-22T13:53:03;1.55;;;1.45;;
20040;SDS011;10181;48.072;9.884;2024-03-22T13:55:28;1.60;;;1.50;;
20040;SDS011;10181;48.072;9.884;2024-03-22T13:57:54;1.90;;;1.80;;
20040;SDS011;10181;48.072;9.884;2024-03-22T14:00:20;1.60;;;1.50;;
20040;SDS011;10181;48.072;9.884;2024-03-22T14:02:45;1.60;;;1.50;;
20040;SDS011;10181;48.072;9.884;2024-03-22T14:05:17;1.33;;;1.23;;
20040;SDS011;10181;48.072;9.884;2024-03-22T14:07:43;1.43;;;1.33;;
20040;SDS011;10181;48.072;9.884;2024-03-22T14:10:09;1.27;;;1.27;;
20040;SDS011;10181;48.072;9.884;2024-03-22T14:12:34;1.40;;;1.40;;
20040;SDS011;10181;48.072;9.884;2024-03-22T14:15:00;1.70;;;1.60;;
20040;SDS011;10181;48.072;9.884;2024-03-22T14:17:26;1.45;;;1.40;;
20040;SDS011;10181;48.072;9.884;2024-03-22T14:19:51;3.60;;;1.70;;
20040;SDS011;10181;48.072;9.884;2024-03-22T14:22:18;1.20;;;1.20;;
20040;SDS011;10181;48.072;9.884;2024-03-22T14:24:43;1.27;;;1.27;;
20040;SDS011;10181;48.072;9.884;2024-03-22T14:27:09;1.30;;;1.30;;
20040;SDS011;10181;48.072;9.884;2024-03-22T14:29:34;1.50;;;1.40;;
20040;SDS011;10181;48.072;9.884;2024-03-22T14:32:00;1.20;;;1.20;;
20040;SDS011;10181;48.072;9.884;2024-03-22T14:34:26;1.33;;;1.33;;
20040;SDS011;10181;48.072;9.884;2024-03-22T14:36:51;0.90;;;0.90;;
20040;SDS011;10181;48.072;9.884;2024-03-22T14:39:17;2.30;;;1.70;;